Time;durP1;ratioP1;P1;durP2;ratioP2;P2;SDS_P1;SDS_P2;PMS_P1;PMS_P2;Temp;Humidity;BMP_temperature;BMP_pressure;BME280_temperature;BME280_humidity;BME280_pressure;Samples;Min_cycle;Max_cycle;Signal;HPM_P1;HPM_P2
2023/03/29 00:02:29;;;;;;;15.13;4.10;;;20.40;64.80;;;;;;5070745;28;20040;-77
2023/03/29 00:04:56;;;;;;;13.75;3.75;;;20.40;64.90;;;;;;5052541;28;20062;-77
2023/03/29 00:07:24;;;;;;;13.27;3.58;;;20.50;65.30;;;;;;5052606;28;20519;-78
2023/03/29 00:09:50;;;;;;;16.63;3.65;;;20.50;65.10;;;;;;5052702;28;20454;-77
2023/03/29 00:12:17;;;;;;;14.65;3.50;;;20.50;64.60;;;;;;5070179;28;20154;-77
2023/03/29 00:14:43;;;;;;;14.82;3.67;;;20.50;65.20;;;;;;5053543;28;20551;-77
2023/03/29 00:17:08;;;;;;;17.17;4.05;;;20.50;65.50;;;;;;5070655;28;20024;-78
2023/03/29 00:19:35;;;;;;;13.95;3.58;;;20.60;65.90;;;;;;5053191;28;20421;-78
2023/03/29 00:22:04;;;;;;;12.90;3.88;;;20.50;67.90;;;;;;5071400;28;20107;-78
2023/03/29 00:24:30;;;;;;;15.23;3.85;;;20.50;66.70;;;;;;5070417;28;20107;-78
2023/03/29 00:26:56;;;;;;;23.17;4.72;;;20.50;66.60;;;;;;5052677;28;20516;-77
2023/03/29 00:29:22;;;;;;;17.75;3.38;;;20.50;66.50;;;;;;5070087;28;20111;-77
2023/03/29 00:31:52;;;;;;;13.15;3.70;;;20.50;66.50;;;;;;5051273;28;20494;-77
2023/03/29 00:34:19;;;;;;;11.55;3.35;;;20.50;66.50;;;;;;5069812;28;20035;-78
2023/03/29 00:36:49;;;;;;;20.40;3.88;;;20.50;66.60;;;;;;5036670;28;20032;-78
2023/03/29 00:39:19;;;;;;;13.52;3.53;;;20.50;66.40;;;;;;5036197;28;20035;-78
2023/03/29 00:41:46;;;;;;;12.77;3.35;;;20.50;68.50;;;;;;5036444;28;20021;-78
2023/03/29 00:44:50;;;;;;;15.05;3.47;;;20.50;68.20;;;;;;5056786;28;20051;-78
2023/03/29 00:47:20;;;;;;;9.80;3.20;;;20.50;68.10;;;;;;5045160;28;20017;-78
2023/03/29 00:49:48;;;;;;;13.80;3.10;;;20.50;67.80;;;;;;5040422;28;20082;-78
2023/03/29 00:52:17;;;;;;;11.15;3.55;;;20.50;67.70;;;;;;5057149;28;20037;-78
2023/03/29 00:54:45;;;;;;;10.93;3.50;;;20.50;67.90;;;;;;5056951;28;20537;-78
2023/03/29 00:57:12;;;;;;;9.90;3.40;;;20.50;67.90;;;;;;5071662;28;20067;-73
2023/03/29 00:59:40;;;;;;;11.95;3.13;;;20.50;66.40;;;;;;5072744;28;20020;-73
2023/03/29 01:02:08;;;;;;;8.30;3.08;;;20.40;66.60;;;;;;5054484;28;20021;-73
2023/03/29 01:04:35;;;;;;;13.50;3.67;;;20.40;67.20;;;;;;5054657;28;20539;-73
2023/03/29 01:07:05;;;;;;;11.20;3.00;;;20.40;67.30;;;;;;5038065;28;20035;-73
2023/03/29 01:09:36;;;;;;;15.10;3.30;;;20.40;67.20;;;;;;5072121;28;20037;-73
2023/03/29 01:12:13;;;;;;;12.50;3.15;;;20.40;67.00;;;;;;5054017;28;20382;-73
2023/03/29 01:14:53;;;;;;;12.15;3.20;;;20.40;66.70;;;;;;5055658;28;20024;-73
2023/03/29 01:17:24;;;;;;;11.05;3.00;;;20.30;66.70;;;;;;5056285;28;20069;-73
2023/03/29 01:20:12;;;;;;;9.80;3.10;;;20.30;66.70;;;;;;5039760;28;20024;-73
2023/03/29 01:23:17;;;;;;;12.90;3.78;;;20.30;66.60;;;;;;5055923;28;20029;-73
2023/03/29 01:26:01;;;;;;;12.10;3.25;;;20.30;66.30;;;;;;5048935;28;20046;-73
2023/03/29 01:28:39;;;;;;;7.43;2.60;;;20.30;66.30;;;;;;5055747;28;20064;-73
2023/03/29 01:31:10;;;;;;;7.60;2.60;;;20.30;66.10;;;;;;5072531;28;20028;-72
2023/03/29 01:33:41;;;;;;;9.70;3.30;;;20.30;66.20;;;;;;5052235;28;20024;-73
2023/03/29 01:36:26;;;;;;;11.55;3.05;;;20.30;66.20;;;;;;5056441;28;20032;-73
2023/03/29 01:38:57;;;;;;;10.73;3.17;;;20.30;66.10;;;;;;5055453;28;20032;-73
2023/03/29 01:41:32;;;;;;;11.10;3.25;;;20.30;66.10;;;;;;5073685;28;20032;-73
2023/03/29 01:44:05;;;;;;;7.13;2.75;;;20.30;66.00;;;;;;5073767;28;20016;-72
2023/03/29 01:46:38;;;;;;;9.07;3.08;;;20.30;65.90;;;;;;5039278;28;20044;-72
2023/03/29 01:49:12;;;;;;;8.38;2.90;;;20.30;65.80;;;;;;5055052;28;20032;-73
2023/03/29 01:51:42;;;;;;;8.65;3.28;;;20.30;65.70;;;;;;5055869;28;20508;-73
2023/03/29 01:54:15;;;;;;;7.13;2.97;;;20.30;65.70;;;;;;5071006;28;20021;-73
2023/03/29 01:56:44;;;;;;;8.27;3.00;;;20.30;65.70;;;;;;5073097;28;20025;-73
2023/03/29 01:59:14;;;;;;;7.57;2.63;;;20.30;65.60;;;;;;5055392;28;20497;-73
2023/03/29 02:01:47;;;;;;;10.38;3.13;;;20.30;65.60;;;;;;5039214;28;20047;-73
2023/03/29 02:04:22;;;;;;;9.70;3.00;;;20.20;65.50;;;;;;5055537;28;20478;-73
2023/03/29 02:06:53;;;;;;;6.95;2.60;;;20.30;65.50;;;;;;5055721;28;20027;-73
2023/03/29 02:09:19;;;;;;;8.55;2.80;;;20.30;65.50;;;;;;5038350;28;20086;-73
2023/03/29 02:11:46;;;;;;;6.90;2.50;;;20.30;65.40;;;;;;5036046;28;20021;-73
2023/03/29 02:14:12;;;;;;;8.60;3.03;;;20.30;65.30;;;;;;5066975;28;20026;-72
2023/03/29 02:16:39;;;;;;;8.80;2.88;;;20.20;65.40;;;;;;5072979;28;20032;-73
2023/03/29 02:19:06;;;;;;;7.78;3.20;;;20.30;65.40;;;;;;5071128;28;20025;-73
2023/03/29 02:21:38;;;;;;;5.95;2.67;;;20.20;65.20;;;;;;5055247;28;20025;-73
2023/03/29 02:24:08;;;;;;;7.50;3.10;;;20.20;65.20;;;;;;5054951;28;20390;-73
2023/03/29 02:26:35;;;;;;;8.43;2.90;;;20.20;65.20;;;;;;5055183;28;20108;-72
2023/03/29 02:29:01;;;;;;;8.05;2.97;;;20.20;65.20;;;;;;5072657;28;20036;-72
2023/03/29 02:32:04;;;;;;;12.63;2.83;;;20.20;65.20;;;;;;5072608;28;20028;-72
2023/03/29 02:34:37;;;;;;;8.43;2.72;;;20.20;65.70;;;;;;5059500;28;20032;-72
2023/03/29 02:37:11;;;;;;;5.75;2.50;;;20.20;65.20;;;;;;5054816;28;20028;-72
2023/03/29 02:39:38;;;;;;;9.30;2.95;;;20.20;65.20;;;;;;5054411;28;20532;-73
2023/03/29 02:42:06;;;;;;;9.15;2.70;;;20.20;65.10;;;;;;5055011;28;20115;-73
2023/03/29 02:44:36;;;;;;;7.68;2.60;;;20.20;65.20;;;;;;5038160;28;20410;-73
2023/03/29 02:47:07;;;;;;;8.30;2.85;;;20.20;65.10;;;;;;5054801;28;20029;-73
2023/03/29 02:49:33;;;;;;;8.45;2.28;;;20.20;65.10;;;;;;5054713;28;20678;-73
2023/03/29 02:52:09;;;;;;;8.20;2.72;;;20.20;65.20;;;;;;5038204;28;20123;-73
2023/03/29 02:54:41;;;;;;;7.07;2.47;;;20.20;65.30;;;;;;5054307;28;20066;-73
2023/03/29 02:57:09;;;;;;;9.65;2.83;;;20.20;65.30;;;;;;5054057;28;20429;-73
2023/03/29 02:59:37;;;;;;;7.68;2.67;;;20.20;65.30;;;;;;5072219;28;20021;-72
2023/03/29 03:02:04;;;;;;;7.10;2.25;;;20.20;65.20;;;;;;5071975;28;20083;-72
2023/03/29 03:04:32;;;;;;;8.27;2.67;;;20.20;65.40;;;;;;5054149;28;20029;-73
2023/03/29 03:06:57;;;;;;;7.05;2.70;;;20.20;65.40;;;;;;5054111;28;20524;-73
2023/03/29 03:09:24;;;;;;;5.03;2.20;;;20.20;65.30;;;;;;5072106;28;20028;-72
2023/03/29 03:11:51;;;;;;;7.95;2.72;;;20.20;65.20;;;;;;5070677;28;20028;-72
2023/03/29 03:14:21;;;;;;;6.95;3.10;;;20.20;65.40;;;;;;5072235;28;20398;-72
2023/03/29 03:16:48;;;;;;;8.15;2.80;;;20.20;65.40;;;;;;5054285;28;20036;-73
2023/03/29 03:19:14;;;;;;;7.10;2.33;;;20.20;65.40;;;;;;5053625;28;20032;-72
2023/03/29 03:21:42;;;;;;;5.97;2.55;;;20.20;65.40;;;;;;5071580;28;20486;-73
2023/03/29 03:24:09;;;;;;;6.25;2.47;;;20.10;65.40;;;;;;5069776;22;20402;-70
2023/03/29 03:26:37;;;;;;;5.07;2.50;;;20.20;65.30;;;;;;5054054;28;20025;-70
2023/03/29 03:29:04;;;;;;;6.88;2.53;;;20.20;65.90;;;;;;5039580;28;20108;-70
2023/03/29 03:31:48;;;;;;;5.78;2.22;;;20.10;65.20;;;;;;5052029;28;20032;-70
2023/03/29 03:34:34;;;;;;;11.65;2.63;;;20.10;65.20;;;;;;5065009;28;20028;-71
2023/03/29 03:37:01;;;;;;;5.75;2.40;;;20.20;65.40;;;;;;5053957;28;20032;-69
2023/03/29 03:39:31;;;;;;;5.03;2.38;;;20.20;65.30;;;;;;5053521;28;20032;-69
2023/03/29 03:41:57;;;;;;;5.60;2.75;;;20.20;65.30;;;;;;5070281;28;20504;-70
2023/03/29 03:44:23;;;;;;;5.43;2.80;;;20.10;65.10;;;;;;5036652;28;20024;-70
2023/03/29 03:47:06;;;;;;;7.80;2.60;;;20.20;65.10;;;;;;5022873;28;20038;-70
2023/03/29 03:49:34;;;;;;;6.50;2.40;;;20.20;65.10;;;;;;5053739;28;20038;-70
2023/03/29 03:52:00;;;;;;;6.90;2.55;;;20.20;65.00;;;;;;5053517;28;20103;-69
2023/03/29 03:54:26;;;;;;;5.45;2.20;;;20.20;65.10;;;;;;5053103;28;20108;-70
2023/03/29 03:57:18;;;;;;;4.88;2.25;;;20.20;65.00;;;;;;5067903;28;20521;-69
2023/03/29 03:59:49;;;;;;;6.82;2.30;;;20.20;65.00;;;;;;5053307;28;20452;-69
2023/03/29 04:02:23;;;;;;;6.53;2.28;;;20.20;64.80;;;;;;5070039;28;20078;-70
2023/03/29 04:04:49;;;;;;;6.10;2.70;;;20.20;65.00;;;;;;5033525;28;20037;-70
2023/03/29 04:07:17;;;;;;;8.15;2.50;;;20.20;64.70;;;;;;5026488;28;20073;-70
2023/03/29 04:10:02;;;;;;;7.32;2.60;;;20.20;64.60;;;;;;5053450;28;20029;-70
2023/03/29 04:12:31;;;;;;;4.80;1.92;;;20.20;64.60;;;;;;5071384;28;20040;-69
2023/03/29 04:14:57;;;;;;;4.30;1.92;;;20.20;64.40;;;;;;5020292;28;20070;-69
2023/03/29 04:17:25;;;;;;;5.07;2.58;;;20.20;64.40;;;;;;5052271;28;20097;-70
2023/03/29 04:20:00;;;;;;;5.35;2.08;;;20.20;64.30;;;;;;5053101;28;20029;-69
2023/03/29 04:22:28;;;;;;;5.53;2.20;;;20.20;64.50;;;;;;5052981;28;20033;-69
2023/03/29 04:24:54;;;;;;;7.13;2.03;;;20.30;64.30;;;;;;5053145;28;20043;-69
2023/03/29 04:27:39;;;;;;;6.00;2.40;;;20.30;64.40;;;;;;5070776;28;20028;-69
2023/03/29 04:30:12;;;;;;;4.50;2.17;;;20.20;64.30;;;;;;5052671;28;20033;-70
2023/03/29 04:32:56;;;;;;;4.10;2.08;;;20.30;64.50;;;;;;5039012;28;20036;-70
2023/03/29 04:35:22;;;;;;;4.40;2.30;;;20.30;64.30;;;;;;5053149;28;20107;-69
2023/03/29 04:37:49;;;;;;;7.40;2.38;;;20.30;64.30;;;;;;5069176;28;20035;-69
2023/03/29 04:40:18;;;;;;;5.80;2.13;;;20.30;64.30;;;;;;5052708;28;20505;-70
2023/03/29 04:43:22;;;;;;;4.88;2.13;;;20.30;64.30;;;;;;4958842;28;20026;-71
2023/03/29 04:45:57;;;;;;;4.18;2.20;;;20.30;64.40;;;;;;4969850;28;20407;-71
2023/03/29 04:48:40;;;;;;;6.65;2.22;;;20.30;64.30;;;;;;5020902;28;20045;-71
2023/03/29 04:51:07;;;;;;;7.10;2.50;;;20.30;64.30;;;;;;5000685;28;20041;-71
2023/03/29 04:53:34;;;;;;;6.93;2.15;;;20.30;64.30;;;;;;5043100;28;20056;-71
2023/03/29 04:55:59;;;;;;;7.22;2.10;;;20.30;64.40;;;;;;5053169;28;20047;-71
2023/03/29 04:58:44;;;;;;;5.85;2.25;;;20.30;64.50;;;;;;5070428;28;20119;-71
2023/03/29 05:01:10;;;;;;;7.65;2.88;;;20.30;64.30;;;;;;5036407;28;20040;-71
2023/03/29 05:03:42;;;;;;;5.20;2.15;;;20.30;64.40;;;;;;5052813;28;20054;-68
2023/03/29 05:06:15;;;;;;;4.30;2.10;;;20.30;64.30;;;;;;5069429;28;20028;-68
2023/03/29 05:08:42;;;;;;;6.28;2.10;;;20.30;64.50;;;;;;5052342;28;20039;-68
2023/03/29 05:11:25;;;;;;;6.00;2.40;;;20.30;64.30;;;;;;5038346;28;20047;-68
2023/03/29 05:13:51;;;;;;;4.95;1.90;;;20.30;64.40;;;;;;5070212;28;20043;-69
2023/03/29 05:16:18;;;;;;;5.68;2.45;;;20.30;64.40;;;;;;5052703;28;20421;-69
2023/03/29 05:18:44;;;;;;;4.10;2.13;;;20.30;64.30;;;;;;5068686;28;20599;-69
2023/03/29 05:21:10;;;;;;;4.45;2.30;;;20.30;64.30;;;;;;5069624;28;20032;-69
2023/03/29 05:23:39;;;;;;;5.93;2.28;;;20.30;64.40;;;;;;5069034;28;20078;-69
2023/03/29 05:26:29;;;;;;;4.82;2.20;;;20.30;64.40;;;;;;5061868;28;20036;-68
2023/03/29 05:28:55;;;;;;;6.00;2.33;;;20.30;64.40;;;;;;5054078;28;20032;-69
2023/03/29 05:31:22;;;;;;;5.30;2.15;;;20.30;64.20;;;;;;5056422;28;20063;-69
2023/03/29 05:33:52;;;;;;;5.70;2.03;;;20.20;64.20;;;;;;5055901;28;20398;-69
2023/03/29 05:36:19;;;;;;;4.35;1.92;;;20.30;64.30;;;;;;5055641;28;20402;-69
2023/03/29 05:38:48;;;;;;;5.60;2.58;;;20.30;64.40;;;;;;5055377;28;20029;-69
2023/03/29 05:41:14;;;;;;;7.20;2.38;;;20.30;64.30;;;;;;5055989;28;20028;-69
2023/03/29 05:44:03;;;;;;;4.47;2.20;;;20.30;64.40;;;;;;5027964;28;20044;-69
2023/03/29 05:46:30;;;;;;;5.60;2.10;;;20.20;64.60;;;;;;5055701;28;20020;-69
2023/03/29 05:49:01;;;;;;;4.88;2.15;;;20.30;64.20;;;;;;5055341;28;20036;-69
2023/03/29 05:51:45;;;;;;;5.55;2.67;;;20.20;64.30;;;;;;5072816;28;20033;-68
2023/03/29 05:54:11;;;;;;;4.15;2.00;;;20.20;64.30;;;;;;5071967;28;20039;-68
2023/03/29 05:56:37;;;;;;;8.85;2.55;;;20.30;64.40;;;;;;5055435;28;20020;-68
2023/03/29 05:59:03;;;;;;;4.07;2.17;;;20.30;64.20;;;;;;5038359;28;20108;-69
2023/03/29 06:01:29;;;;;;;7.85;2.65;;;20.30;64.40;;;;;;5055533;28;20033;-68
2023/03/29 06:04:02;;;;;;;6.93;2.50;;;20.30;64.30;;;;;;5071961;28;20044;-69
2023/03/29 06:06:36;;;;;;;6.28;2.45;;;20.30;64.30;;;;;;5072092;28;20027;-69
2023/03/29 06:09:02;;;;;;;5.78;2.10;;;20.30;64.30;;;;;;5038773;28;20033;-69
2023/03/29 06:11:33;;;;;;;6.88;2.38;;;20.30;64.30;;;;;;5055575;28;20044;-69
2023/03/29 06:14:08;;;;;;;4.90;2.20;;;20.30;64.10;;;;;;5073312;28;20056;-69
2023/03/29 06:16:39;;;;;;;7.90;2.33;;;20.30;64.10;;;;;;5055077;28;20067;-69
2023/03/29 06:19:06;;;;;;;10.18;2.60;;;20.30;63.90;;;;;;5054912;28;20056;-71
2023/03/29 06:21:33;;;;;;;9.38;2.58;;;20.40;64.70;;;;;;5055389;28;20024;-71
2023/03/29 06:23:59;;;;;;;13.65;2.70;;;20.30;64.10;;;;;;5054872;28;20032;-72
2023/03/29 06:26:28;;;;;;;8.45;2.75;;;20.40;64.20;;;;;;5039153;28;20032;-71
2023/03/29 06:28:54;;;;;;;9.35;2.60;;;20.40;64.40;;;;;;5055236;28;20119;-71
2023/03/29 06:31:20;;;;;;;8.50;2.67;;;20.40;64.60;;;;;;5055021;28;20480;-71
2023/03/29 06:33:49;;;;;;;21.63;3.20;;;20.40;64.30;;;;;;5038206;28;20036;-71
2023/03/29 06:36:27;;;;;;;49.63;5.38;;;20.40;64.30;;;;;;5054693;28;20067;-71
2023/03/29 06:38:54;;;;;;;90.55;9.95;;;20.40;64.30;;;;;;5072368;28;20029;-71
2023/03/29 06:41:58;;;;;;;73.80;8.88;;;20.40;64.50;;;;;;5010006;28;20033;-71
2023/03/29 06:44:44;;;;;;;65.03;7.15;;;20.40;65.20;;;;;;5010723;28;20424;-70
2023/03/29 06:47:17;;;;;;;44.17;6.57;;;20.40;64.60;;;;;;5050964;28;20044;-70
2023/03/29 06:49:44;;;;;;;33.50;4.72;;;20.40;64.80;;;;;;5071441;28;20041;-67
2023/03/29 06:52:28;;;;;;;30.98;5.25;;;20.40;65.00;;;;;;5040729;28;20553;-69
2023/03/29 06:54:54;;;;;;;41.65;7.88;;;20.40;64.40;;;;;;5071320;28;20036;-67
2023/03/29 06:57:24;;;;;;;37.60;6.95;;;20.40;64.40;;;;;;5053656;28;20040;-68
2023/03/29 06:59:49;;;;;;;33.58;5.45;;;20.40;64.70;;;;;;5037658;28;20074;-68
2023/03/29 07:02:20;;;;;;;30.48;5.68;;;20.40;65.50;;;;;;5051467;28;20024;-68
2023/03/29 07:04:53;;;;;;;31.08;6.88;;;20.40;64.60;;;;;;5027482;28;20025;-68
2023/03/29 07:07:38;;;;;;;39.38;7.22;;;20.40;64.80;;;;;;5074200;28;20085;-68
2023/03/29 07:10:15;;;;;;;30.70;6.03;;;20.30;64.90;;;;;;5059277;28;20089;-68
2023/03/29 07:13:00;;;;;;;28.10;6.55;;;20.30;64.80;;;;;;5092481;28;20024;-68
2023/03/29 07:15:27;;;;;;;27.00;6.20;;;20.40;64.80;;;;;;5092510;28;20111;-68
2023/03/29 07:18:12;;;;;;;19.52;5.25;;;20.40;64.70;;;;;;5076706;28;20028;-68
2023/03/29 07:20:39;;;;;;;22.38;5.90;;;20.40;65.00;;;;;;5074404;28;20114;-68
2023/03/29 07:23:07;;;;;;;24.88;5.43;;;20.30;65.30;;;;;;5074188;28;20035;-68
2023/03/29 07:25:33;;;;;;;24.88;5.88;;;20.30;64.70;;;;;;5074339;28;20091;-68
2023/03/29 07:27:59;;;;;;;20.80;5.22;;;20.30;65.20;;;;;;5073967;28;20796;-67
2023/03/29 07:30:28;;;;;;;18.38;5.38;;;20.30;65.30;;;;;;5074235;28;20035;-68
2023/03/29 07:33:04;;;;;;;21.25;5.43;;;20.30;64.70;;;;;;5074104;28;20040;-68
2023/03/29 07:35:37;;;;;;;23.23;5.80;;;20.30;64.80;;;;;;5074166;28;20027;-68
2023/03/29 07:38:04;;;;;;;20.52;4.95;;;20.30;64.60;;;;;;5073624;28;20504;-68
2023/03/29 07:40:31;;;;;;;18.95;5.05;;;20.30;64.70;;;;;;5074241;28;20039;-68
2023/03/29 07:42:57;;;;;;;15.15;4.82;;;20.30;64.60;;;;;;5092522;28;20024;-68
2023/03/29 07:45:27;;;;;;;15.48;5.38;;;20.30;64.60;;;;;;5073925;28;20036;-68
2023/03/29 07:48:00;;;;;;;15.10;4.47;;;20.30;64.50;;;;;;5073585;28;20028;-67
2023/03/29 07:50:32;;;;;;;16.33;4.63;;;20.30;64.50;;;;;;5074237;28;20273;-68
2023/03/29 07:53:02;;;;;;;17.20;4.70;;;20.30;64.50;;;;;;5072780;28;20431;-68
2023/03/29 07:55:29;;;;;;;12.23;4.30;;;20.30;64.50;;;;;;5091815;28;20038;-68
2023/03/29 07:58:25;;;;;;;18.55;4.88;;;20.30;64.60;;;;;;5001386;28;20082;-69
2023/03/29 08:00:51;;;;;;;19.63;4.43;;;20.30;58.90;;;;;;5083536;28;20062;-68
2023/03/29 08:03:37;;;;;;;16.40;4.13;;;20.00;50.40;;;;;;5053588;28;20048;-68
2023/03/29 08:06:05;;;;;;;23.40;3.95;;;19.80;46.40;;;;;;5052941;28;20111;-68
2023/03/29 08:08:31;;;;;;;14.95;3.50;;;19.70;47.20;;;;;;5052195;28;20500;-68
2023/03/29 08:11:01;;;;;;;18.98;4.00;;;19.50;46.70;;;;;;5032972;28;20119;-68
2023/03/29 08:13:35;;;;;;;16.25;4.13;;;19.60;49.60;;;;;;5033524;28;20515;-69
2023/03/29 08:16:26;;;;;;;15.52;3.63;;;19.70;48.30;;;;;;5050379;28;20063;-69
2023/03/29 08:19:02;;;;;;;11.48;3.60;;;19.80;51.70;;;;;;5026263;28;20028;-67
2023/03/29 08:21:44;;;;;;;14.00;4.10;;;19.90;52.40;;;;;;5046322;28;23193;-68
2023/03/29 08:24:10;;;;;;;12.15;3.60;;;20.00;53.00;;;;;;5047870;28;20035;-69
2023/03/29 08:26:44;;;;;;;14.05;3.72;;;20.00;52.40;;;;;;5049270;28;20067;-69
2023/03/29 08:29:12;;;;;;;13.75;3.15;;;20.00;52.90;;;;;;5048997;28;20436;-69
2023/03/29 08:31:38;;;;;;;17.33;3.60;;;20.10;53.60;;;;;;5050184;28;20036;-69
2023/03/29 08:34:04;;;;;;;17.02;4.20;;;20.10;55.90;;;;;;5033549;28;20172;-69
2023/03/29 08:36:59;;;;;;;11.98;3.53;;;20.20;59.10;;;;;;5052944;28;20043;-69
2023/03/29 08:39:45;;;;;;;20.73;4.70;;;20.30;58.70;;;;;;5066858;28;20040;-68
2023/03/29 08:43:00;;;;;;;16.27;3.55;;;20.40;59.10;;;;;;5067843;28;20028;-69
2023/03/29 08:46:01;;;;;;;17.17;4.35;;;20.30;60.20;;;;;;5033649;28;20375;-69
2023/03/29 08:48:46;;;;;;;13.45;4.22;;;20.40;60.30;;;;;;5067918;28;20029;-69
2023/03/29 08:51:24;;;;;;;20.52;4.72;;;20.40;60.10;;;;;;5049042;28;20047;-72
2023/03/29 08:54:04;;;;;;;18.60;3.85;;;20.50;60.50;;;;;;5050879;28;20036;-72
2023/03/29 08:56:50;;;;;;;16.10;4.25;;;20.50;60.20;;;;;;5035831;28;20028;-72
2023/03/29 08:59:29;;;;;;;17.38;3.10;;;20.50;60.30;;;;;;5049911;28;20119;-72
2023/03/29 09:01:58;;;;;;;11.20;3.72;;;20.40;59.70;;;;;;5049631;28;20029;-72
2023/03/29 09:04:36;;;;;;;13.85;3.58;;;20.40;60.20;;;;;;5069723;28;20028;-72
2023/03/29 09:07:19;;;;;;;19.90;3.92;;;20.40;60.10;;;;;;5053421;28;20032;-72
2023/03/29 09:09:46;;;;;;;11.20;3.35;;;20.40;60.10;;;;;;5070866;28;20425;-72
2023/03/29 09:12:32;;;;;;;13.40;4.43;;;20.40;60.10;;;;;;5054416;28;20094;-72
2023/03/29 09:15:15;;;;;;;8.88;3.42;;;20.50;60.20;;;;;;5037446;28;20033;-72
2023/03/29 09:17:50;;;;;;;10.85;3.10;;;20.50;60.40;;;;;;5053882;28;20580;-72
2023/03/29 09:20:21;;;;;;;12.10;3.55;;;20.40;60.20;;;;;;5070550;28;20112;-71
2023/03/29 09:23:07;;;;;;;12.15;3.30;;;20.40;60.60;;;;;;5054144;28;20029;-72
2023/03/29 09:26:35;;;;;;;16.98;4.00;;;20.40;60.10;;;;;;5054317;28;20041;-71
2023/03/29 09:30:03;;;;;;;15.52;4.15;;;20.40;60.50;;;;;;5026299;28;20071;-71
2023/03/29 09:33:12;;;;;;;21.58;3.97;;;20.40;55.50;;;;;;5048094;28;20132;-71
2023/03/29 09:36:22;;;;;;;9.13;3.47;;;20.00;48.50;;;;;;5023977;28;20029;-71
2023/03/29 09:38:53;;;;;;;11.95;3.17;;;19.80;45.00;;;;;;5032248;28;20039;-72
2023/03/29 09:41:30;;;;;;;6.55;2.78;;;19.70;42.90;;;;;;5017015;28;20025;-71
2023/03/29 09:44:04;;;;;;;7.30;3.17;;;19.50;41.90;;;;;;5017178;28;20061;-72
2023/03/29 09:46:42;;;;;;;6.45;2.83;;;19.40;43.10;;;;;;5035467;28;20057;-77
2023/03/29 09:49:13;;;;;;;8.30;3.17;;;19.40;43.50;;;;;;5021828;28;20037;-76
2023/03/29 09:51:41;;;;;;;6.38;2.50;;;19.60;44.60;;;;;;5036038;28;20048;-77
2023/03/29 09:54:11;;;;;;;6.70;2.65;;;19.70;46.70;;;;;;5035848;28;20437;-78
2023/03/29 09:56:58;;;;;;;11.73;2.67;;;19.80;47.10;;;;;;5035922;28;20094;-78
2023/03/29 09:59:24;;;;;;;9.88;2.55;;;19.90;48.20;;;;;;5033301;28;20537;-78
2023/03/29 10:01:50;;;;;;;10.35;2.40;;;20.00;48.90;;;;;;5034758;28;20027;-78
2023/03/29 10:04:16;;;;;;;7.53;2.60;;;20.00;48.70;;;;;;5053771;28;20040;-77
2023/03/29 10:06:48;;;;;;;;;;;20.10;49.60;;;;;;5053886;28;20112;-77
2023/03/29 10:09:27;;;;;;;10.65;2.40;;;20.10;50.30;;;;;;5052427;28;19913;-78
2023/03/29 10:12:05;;;;;;;9.73;2.40;;;20.20;50.20;;;;;;5038224;28;20108;-77
2023/03/29 10:14:44;;;;;;;6.05;2.58;;;20.30;50.30;;;;;;5032828;28;20459;-77
2023/03/29 10:17:22;;;;;;;5.15;2.20;;;20.30;50.80;;;;;;5033667;28;20518;-77
2023/03/29 10:19:51;;;;;;;6.57;2.30;;;20.40;51.10;;;;;;5051232;28;20461;-77
2023/03/29 10:22:21;;;;;;;6.75;2.17;;;20.40;51.60;;;;;;5051068;28;20036;-77
2023/03/29 10:24:52;;;;;;;7.13;2.22;;;20.40;52.00;;;;;;5051291;28;20024;-77
2023/03/29 10:27:24;;;;;;;11.88;2.60;;;20.40;52.20;;;;;;5051528;28;20486;-77
2023/03/29 10:29:51;;;;;;;10.57;2.72;;;20.40;52.40;;;;;;5051530;28;20386;-77
2023/03/29 10:32:29;;;;;;;18.48;3.92;;;20.50;52.10;;;;;;5016686;28;20033;-77
2023/03/29 10:35:11;;;;;;;12.00;3.30;;;20.50;52.10;;;;;;5007155;28;20084;-77
2023/03/29 10:37:42;;;;;;;45.92;6.85;;;20.40;52.80;;;;;;5052416;28;20025;-76
2023/03/29 10:40:30;;;;;;;20.30;4.57;;;20.30;51.00;;;;;;5035453;28;20032;-77
2023/03/29 10:43:11;;;;;;;30.15;4.85;;;20.30;51.20;;;;;;5053725;28;20031;-77
2023/03/29 10:45:38;;;;;;;18.20;3.58;;;20.30;51.60;;;;;;5039543;28;20025;-81
2023/03/29 10:48:07;;;;;;;44.05;6.47;;;20.40;51.60;;;;;;5015647;28;20044;-82
2023/03/29 10:50:37;;;;;;;29.17;5.95;;;20.40;51.90;;;;;;5018919;28;20037;-83
2023/03/29 10:53:12;;;;;;;20.33;5.30;;;20.40;51.90;;;;;;5069332;28;20028;-82
2023/03/29 10:56:01;;;;;;;29.70;5.65;;;20.50;52.00;;;;;;5063972;28;20035;-81
2023/03/29 10:58:46;;;;;;;40.72;6.68;;;20.50;52.40;;;;;;5070004;28;20082;-82
2023/03/29 11:01:19;;;;;;;28.88;6.25;;;20.50;53.00;;;;;;5048989;28;20108;-85
2023/03/29 11:03:57;;;;;;;31.48;6.25;;;20.60;53.60;;;;;;5015432;28;20040;-83
2023/03/29 11:06:36;;;;;;;33.38;6.75;;;20.60;54.20;;;;;;5032904;28;20032;-82
2023/03/29 11:09:33;;;;;;;32.78;6.72;;;20.60;54.40;;;;;;5033925;28;20029;-82
2023/03/29 11:12:15;;;;;;;31.55;6.18;;;20.60;55.50;;;;;;5010079;28;20136;-82
2023/03/29 11:15:26;;;;;;;37.90;6.05;;;20.60;57.00;;;;;;5003303;28;20402;-85
2023/03/29 11:18:04;;;;;;;36.78;10.25;;;20.70;56.60;;;;;;4954245;28;20455;-81
2023/03/29 11:21:13;;;;;;;31.58;7.70;;;20.60;54.30;;;;;;5037168;28;20048;-83
2023/03/29 11:23:58;;;;;;;36.63;9.23;;;20.60;56.30;;;;;;5027700;28;20442;-82
2023/03/29 11:26:36;;;;;;;36.83;8.45;;;20.60;55.70;;;;;;5010779;28;20033;-76
2023/03/29 11:29:13;;;;;;;39.13;8.13;;;20.60;56.30;;;;;;5028269;28;20071;-77
2023/03/29 11:32:12;;;;;;;38.55;9.15;;;20.50;55.80;;;;;;5066203;28;20479;-77
2023/03/29 11:34:56;;;;;;;28.02;8.65;;;20.50;55.30;;;;;;5022803;28;20666;-76
2023/03/29 11:37:37;;;;;;;41.65;8.32;;;20.50;55.70;;;;;;5046161;28;20321;-76
2023/03/29 11:40:34;;;;;;;27.15;6.93;;;20.50;56.20;;;;;;5038488;28;20040;-77
2023/03/29 11:43:04;;;;;;;29.30;6.57;;;20.50;56.40;;;;;;5027693;28;20053;-76
2023/03/29 11:45:36;;;;;;;24.95;6.97;;;20.50;56.80;;;;;;5027630;28;20031;-76
2023/03/29 11:48:06;;;;;;;25.00;6.00;;;20.50;57.00;;;;;;5009118;28;20091;-76
2023/03/29 11:50:43;;;;;;;23.65;6.80;;;20.40;57.20;;;;;;5011019;28;20441;-76
2023/03/29 11:53:15;;;;;;;26.27;5.88;;;20.40;57.20;;;;;;5039555;28;20129;-77
2023/03/29 11:55:44;;;;;;;23.13;7.05;;;20.40;57.20;;;;;;5044007;28;20032;-76
2023/03/29 11:58:13;;;;;;;21.70;5.80;;;20.50;57.50;;;;;;5047897;28;20051;-76
2023/03/29 12:01:04;;;;;;;18.75;5.88;;;20.50;57.50;;;;;;5012662;28;20040;-76
2023/03/29 12:03:45;;;;;;;24.08;5.78;;;20.50;57.60;;;;;;5011921;28;20078;-76
2023/03/29 12:06:29;;;;;;;17.67;6.07;;;20.50;57.70;;;;;;5049449;28;20063;-76
2023/03/29 12:09:18;;;;;;;15.20;5.47;;;20.50;59.00;;;;;;5015722;28;20041;-75
2023/03/29 12:12:23;;;;;;;18.98;6.05;;;20.50;57.80;;;;;;5047303;28;20475;-75
2023/03/29 12:15:10;;;;;;;15.68;5.10;;;20.50;58.10;;;;;;5026585;28;20045;-75
2023/03/29 12:17:45;;;;;;;19.30;5.22;;;20.50;57.80;;;;;;5012495;28;20041;-75
2023/03/29 12:20:22;;;;;;;19.77;5.10;;;20.50;58.20;;;;;;5047106;28;20036;-76
2023/03/29 12:22:49;;;;;;;18.42;6.28;;;20.50;58.10;;;;;;5028772;28;20036;-75
2023/03/29 12:25:22;;;;;;;19.73;5.40;;;20.50;58.70;;;;;;5046752;28;20449;-76
2023/03/29 12:28:00;;;;;;;21.23;5.32;;;20.50;58.30;;;;;;5028890;28;20029;-76
2023/03/29 12:30:37;;;;;;;20.55;5.32;;;20.50;58.40;;;;;;5046760;28;20025;-75
2023/03/29 12:33:41;;;;;;;15.48;5.38;;;20.50;58.30;;;;;;5046039;28;20036;-75
2023/03/29 12:36:40;;;;;;;14.50;5.70;;;20.50;58.50;;;;;;5046229;28;20228;-74
2023/03/29 12:39:31;;;;;;;14.07;5.22;;;20.50;58.50;;;;;;5047599;28;20068;-76
2023/03/29 12:42:21;;;;;;;19.45;5.25;;;20.50;58.60;;;;;;5050407;28;20032;-76
2023/03/29 12:45:15;;;;;;;18.00;4.60;;;20.50;58.60;;;;;;5030576;28;20475;-75
2023/03/29 12:47:44;;;;;;;12.40;4.47;;;20.50;58.60;;;;;;5048529;28;20033;-75
2023/03/29 12:50:35;;;;;;;12.88;4.75;;;20.50;58.70;;;;;;5049437;28;20538;-76
2023/03/29 12:53:04;;;;;;;12.73;4.70;;;20.50;58.80;;;;;;5030028;28;20386;-76
2023/03/29 12:55:30;;;;;;;13.30;5.22;;;20.50;59.40;;;;;;5048343;28;20400;-77
2023/03/29 12:58:20;;;;;;;14.32;5.28;;;20.50;58.80;;;;;;5057855;28;20036;-78
2023/03/29 13:00:46;;;;;;;;;;;20.50;58.80;;;;;;5031745;28;20052;-76
2023/03/29 13:03:27;;;;;;;13.73;4.78;;;20.50;59.00;;;;;;5032131;28;19963;-77
2023/03/29 13:06:24;;;;;;;15.73;5.18;;;20.50;59.00;;;;;;5049228;28;20394;-76
2023/03/29 13:09:01;;;;;;;13.07;4.82;;;20.50;59.10;;;;;;5049721;28;20106;-76
2023/03/29 13:11:39;;;;;;;16.27;5.10;;;20.50;59.10;;;;;;5031989;28;20060;-77
2023/03/29 13:14:15;;;;;;;11.80;4.68;;;20.50;59.20;;;;;;5015553;28;20550;-76
2023/03/29 13:16:42;;;;;;;18.98;5.18;;;20.50;59.20;;;;;;5031918;28;20044;-77
2023/03/29 13:19:44;;;;;;;12.40;5.60;;;20.50;59.10;;;;;;5015296;28;20033;-77
2023/03/29 13:22:29;;;;;;;15.02;4.82;;;20.50;59.10;;;;;;5032670;28;20112;-74